Time;durP1;ratioP1;P1;durP2;ratioP2;P2;SDS_P1;SDS_P2;PMS_P1;PMS_P2;Temp;Humidity;BMP_temperature;BMP_pressure;BME280_temperature;BME280_humidity;BME280_pressure;Samples;Min_cycle;Max_cycle;Signal;HPM_P1;HPM_P2
2022/12/07 00:00:56;;;;;;;1999.90;999.90;;;;;;;;;;4959171;28;20409;-73
2022/12/07 00:03:24;;;;;;;1999.90;999.90;;;;;;;;;;4961857;28;20958;-73
2022/12/07 00:05:52;;;;;;;1999.90;999.90;;;;;;;;;;4964423;28;20869;-73
2022/12/07 00:08:20;;;;;;;1999.90;999.90;;;;;;;;;;4963431;28;20889;-73
2022/12/07 00:10:48;;;;;;;1999.90;999.90;;;;;;;;;;4964586;28;20521;-73
2022/12/07 00:13:16;;;;;;;1999.90;999.90;;;;;;;;;;4963478;28;20440;-73
2022/12/07 00:15:44;;;;;;;1999.90;999.90;;;;;;;;;;4965010;28;20852;-73
2022/12/07 00:18:13;;;;;;;1999.90;999.90;;;;;;;;;;4978948;28;20564;-74
2022/12/07 00:20:41;;;;;;;1999.90;999.90;;;;;;;;;;4966687;28;20391;-73
2022/12/07 00:23:08;;;;;;;1999.90;999.90;;;;;;;;;;4964432;28;20876;-73
2022/12/07 00:25:36;;;;;;;1999.90;999.90;;;;;;;;;;4963048;28;20426;-73
2022/12/07 00:28:04;;;;;;;1999.90;999.90;;;;;;;;;;4963425;28;20415;-73
2022/12/07 00:30:32;;;;;;;1999.90;999.90;;;;;;;;;;4965683;28;21040;-73
2022/12/07 00:33:00;;;;;;;1999.90;999.90;;;;;;;;;;4964192;28;20407;-74
2022/12/07 00:35:29;;;;;;;1999.90;999.90;;;;;;;;;;4979783;28;20400;-74
2022/12/07 00:37:57;;;;;;;1999.90;999.90;;;;;;;;;;4952838;28;20426;-73
2022/12/07 00:40:24;;;;;;;1999.90;999.90;;;;;;;;;;4963646;28;20414;-74
2022/12/07 00:42:52;;;;;;;1999.90;999.90;;;;;;;;;;4948269;28;20412;-73
2022/12/07 00:45:20;;;;;;;1999.90;999.90;;;;;;;;;;4962736;28;20410;-73
2022/12/07 00:47:48;;;;;;;1999.90;999.90;;;;;;;;;;4965539;28;20426;-73
2022/12/07 00:50:16;;;;;;;1999.90;999.90;;;;;;;;;;4964306;28;20490;-73
2022/12/07 00:52:45;;;;;;;1999.90;999.90;;;;;;;;;;4965647;28;20486;-73
2022/12/07 00:55:13;;;;;;;1999.90;999.90;;;;;;;;;;4944929;28;21361;-73
2022/12/07 00:57:40;;;;;;;1999.90;999.90;;;;;;;;;;4963865;28;20438;-73
2022/12/07 01:00:09;;;;;;;1999.90;999.90;;;;;;;;;;4960197;28;20403;-73
2022/12/07 01:02:36;;;;;;;1999.90;999.90;;;;;;;;;;4962422;28;20487;-73
2022/12/07 01:05:04;;;;;;;1999.90;999.90;;;;;;;;;;4976072;28;20509;-73
2022/12/07 01:07:32;;;;;;;1999.90;999.90;;;;;;;;;;4961148;28;20422;-73
2022/12/07 01:10:01;;;;;;;1999.90;999.90;;;;;;;;;;4961024;28;21168;-72
2022/12/07 01:12:30;;;;;;;1999.90;999.90;;;;;;;;;;4962078;28;21044;-73
2022/12/07 01:14:58;;;;;;;1999.90;999.90;;;;;;;;;;4961808;28;20418;-72
2022/12/07 01:17:25;;;;;;;1999.90;999.90;;;;;;;;;;4961572;28;20427;-73
2022/12/07 01:19:54;;;;;;;1999.90;999.90;;;;;;;;;;4945231;28;20554;-74
2022/12/07 01:22:21;;;;;;;1999.90;999.90;;;;;;;;;;4976225;28;21282;-73
2022/12/07 01:24:49;;;;;;;1999.90;999.90;;;;;;;;;;4960540;28;20399;-73
2022/12/07 01:27:18;;;;;;;1999.90;999.90;;;;;;;;;;4945901;28;20430;-73
2022/12/07 01:29:46;;;;;;;1999.90;999.90;;;;;;;;;;4945142;28;20418;-73
2022/12/07 01:32:14;;;;;;;1999.90;999.90;;;;;;;;;;4960026;28;20741;-72
2022/12/07 01:34:42;;;;;;;1999.90;999.90;;;;;;;;;;4945317;28;20242;-74
2022/12/07 01:37:09;;;;;;;1999.90;999.90;;;;;;;;;;4961843;28;20231;-73
2022/12/07 01:39:37;;;;;;;1999.90;999.90;;;;;;;;;;4962782;28;20236;-73
2022/12/07 01:42:05;;;;;;;1999.90;999.90;;;;;;;;;;4962964;28;20242;-73
2022/12/07 01:44:48;;;;;;;1999.90;999.90;;;;;;;;;;4963130;28;20244;-74
2022/12/07 01:47:17;;;;;;;1999.90;999.90;;;;;;;;;;4960933;28;20223;-73
2022/12/07 01:49:47;;;;;;;1999.90;999.90;;;;;;;;;;4963502;28;20250;-73
2022/12/07 01:52:16;;;;;;;1999.90;999.90;;;;;;;;;;4963398;28;20231;-73
2022/12/07 01:54:44;;;;;;;1999.90;999.90;;;;;;;;;;4946921;28;20231;-74
2022/12/07 01:57:13;;;;;;;1999.90;999.90;;;;;;;;;;4979925;28;20242;-74
2022/12/07 01:59:41;;;;;;;1999.90;999.90;;;;;;;;;;4955684;28;20415;-74
2022/12/07 02:02:13;;;;;;;1999.90;999.90;;;;;;;;;;4978391;28;20272;-73
2022/12/07 02:04:43;;;;;;;1999.90;999.90;;;;;;;;;;4964073;28;20242;-75
2022/12/07 02:07:11;;;;;;;1999.90;999.90;;;;;;;;;;4978904;28;20341;-73
2022/12/07 02:09:39;;;;;;;1999.90;999.90;;;;;;;;;;4961384;28;20239;-73
2022/12/07 02:12:07;;;;;;;1999.90;999.90;;;;;;;;;;4966323;28;20261;-74
2022/12/07 02:14:34;;;;;;;1999.90;999.90;;;;;;;;;;4951085;28;20231;-73
2022/12/07 02:17:07;;;;;;;1999.90;999.90;;;;;;;;;;4965609;28;20224;-74
2022/12/07 02:19:54;;;;;;;1999.90;999.90;;;;;;;;;;4964798;28;20738;-73
2022/12/07 02:22:29;;;;;;;1999.90;999.90;;;;;;;;;;4954532;28;20227;-74
2022/12/07 02:25:03;;;;;;;1999.90;999.90;;;;;;;;;;4947878;28;20231;-73
2022/12/07 02:27:44;;;;;;;1999.90;999.90;;;;;;;;;;4965422;28;20242;-73
2022/12/07 02:30:15;;;;;;;1999.90;999.90;;;;;;;;;;4979389;28;20235;-74
2022/12/07 02:32:48;;;;;;;1999.90;999.90;;;;;;;;;;4964414;28;20235;-73
2022/12/07 02:35:19;;;;;;;1999.90;999.90;;;;;;;;;;4967261;28;20235;-74
2022/12/07 02:37:54;;;;;;;1999.90;999.90;;;;;;;;;;4963164;28;20235;-74
2022/12/07 02:40:26;;;;;;;1999.90;999.90;;;;;;;;;;4965543;28;20725;-74
2022/12/07 02:42:57;;;;;;;1999.90;999.90;;;;;;;;;;4949339;28;20238;-74
2022/12/07 02:45:28;;;;;;;1999.90;999.90;;;;;;;;;;4960986;28;20322;-74
2022/12/07 02:47:58;;;;;;;1999.90;999.90;;;;;;;;;;4964298;28;20231;-73
2022/12/07 02:50:27;;;;;;;1999.90;999.90;;;;;;;;;;4965348;28;20239;-73
2022/12/07 02:52:55;;;;;;;1999.90;999.90;;;;;;;;;;4964962;28;20242;-73
2022/12/07 02:55:26;;;;;;;1999.90;999.90;;;;;;;;;;4964428;28;20722;-74
2022/12/07 02:57:59;;;;;;;1999.90;999.90;;;;;;;;;;4964369;28;20231;-73
2022/12/07 03:00:32;;;;;;;1999.90;999.90;;;;;;;;;;4962133;28;20705;-73
2022/12/07 03:03:03;;;;;;;1999.90;999.90;;;;;;;;;;4942895;28;20242;-74
2022/12/07 03:05:52;;;;;;;1999.90;999.90;;;;;;;;;;4965327;28;20239;-73
2022/12/07 03:08:24;;;;;;;1999.90;999.90;;;;;;;;;;4975496;28;20250;-73
2022/12/07 03:10:57;;;;;;;1999.90;999.90;;;;;;;;;;4966662;28;20274;-74
2022/12/07 03:13:28;;;;;;;1999.90;999.90;;;;;;;;;;4967355;28;20231;-74
2022/12/07 03:16:00;;;;;;;1999.90;999.90;;;;;;;;;;4963565;28;20340;-73
2022/12/07 03:18:31;;;;;;;1999.90;999.90;;;;;;;;;;4967606;28;20235;-73
2022/12/07 03:21:02;;;;;;;1999.90;999.90;;;;;;;;;;4965705;28;20235;-74
2022/12/07 03:23:32;;;;;;;1999.90;999.90;;;;;;;;;;4948871;28;20246;-73
2022/12/07 03:26:01;;;;;;;1999.90;999.90;;;;;;;;;;4965684;28;20287;-74
2022/12/07 03:28:32;;;;;;;1999.90;999.90;;;;;;;;;;4965600;28;20242;-74
2022/12/07 03:31:04;;;;;;;1999.90;999.90;;;;;;;;;;4967788;28;20239;-74
2022/12/07 03:33:33;;;;;;;1999.90;999.90;;;;;;;;;;4964979;28;20279;-74
2022/12/07 03:36:04;;;;;;;1999.90;999.90;;;;;;;;;;4978804;28;20239;-74
2022/12/07 03:38:34;;;;;;;1999.90;999.90;;;;;;;;;;4971176;28;20254;-74
2022/12/07 03:41:05;;;;;;;1999.90;999.90;;;;;;;;;;4948790;28;20235;-73
2022/12/07 03:43:33;;;;;;;1999.90;999.90;;;;;;;;;;4951904;28;20310;-74
2022/12/07 03:46:08;;;;;;;1999.90;999.90;;;;;;;;;;4961577;28;20317;-74
2022/12/07 03:48:38;;;;;;;1999.90;999.90;;;;;;;;;;4963056;28;20517;-74
2022/12/07 03:51:10;;;;;;;1999.90;999.90;;;;;;;;;;4979542;28;20435;-74
2022/12/07 03:53:45;;;;;;;1999.90;999.90;;;;;;;;;;4961924;28;20475;-74
2022/12/07 03:56:14;;;;;;;1999.90;999.90;;;;;;;;;;4964069;28;20403;-75
2022/12/07 03:58:42;;;;;;;1999.90;999.90;;;;;;;;;;4965054;28;20408;-74
2022/12/07 04:01:12;;;;;;;1999.90;999.90;;;;;;;;;;4965487;28;20302;-74
2022/12/07 04:03:40;;;;;;;1999.90;999.90;;;;;;;;;;4964134;28;20600;-74
2022/12/07 04:06:07;;;;;;;1999.90;999.90;;;;;;;;;;4963761;28;21017;-73
2022/12/07 04:08:35;;;;;;;1999.90;999.90;;;;;;;;;;4965127;28;20306;-73
2022/12/07 04:11:03;;;;;;;1999.90;999.90;;;;;;;;;;4962085;28;20223;-73
2022/12/07 04:14:17;;;;;;;1999.90;999.90;;;;;;;;;;4963010;28;20740;-73
2022/12/07 04:16:20;;;;;;;1999.90;999.90;;;;;;;;;;4962862;28;20414;-73
2022/12/07 04:18:49;;;;;;;1999.90;999.90;;;;;;;;;;4961016;28;20486;-73
2022/12/07 04:21:16;;;;;;;1999.90;999.90;;;;;;;;;;4975245;28;20392;-74
2022/12/07 04:23:44;;;;;;;1999.90;999.90;;;;;;;;;;4961979;28;20422;-74
2022/12/07 04:26:12;;;;;;;1999.90;999.90;;;;;;;;;;4944189;28;20419;-74
2022/12/07 04:28:40;;;;;;;1999.90;999.90;;;;;;;;;;4963333;28;20423;-73
2022/12/07 04:31:08;;;;;;;1999.90;999.90;;;;;;;;;;4949393;28;20403;-74
2022/12/07 04:33:37;;;;;;;1999.90;999.90;;;;;;;;;;4958793;28;20494;-74
2022/12/07 04:36:05;;;;;;;1999.90;999.90;;;;;;;;;;4957538;28;20415;-74
2022/12/07 04:38:33;;;;;;;1999.90;999.90;;;;;;;;;;4960593;28;21608;-74
2022/12/07 04:41:05;;;;;;;1999.90;999.90;;;;;;;;;;4960428;28;20463;-73
2022/12/07 04:43:33;;;;;;;1999.90;999.90;;;;;;;;;;4961349;28;20443;-72
2022/12/07 04:46:01;;;;;;;1999.90;999.90;;;;;;;;;;4958809;28;20403;-73
2022/12/07 04:48:28;;;;;;;1999.90;999.90;;;;;;;;;;4963397;28;20469;-73
2022/12/07 04:50:58;;;;;;;1999.90;999.90;;;;;;;;;;4936389;28;20242;-73
2022/12/07 04:53:26;;;;;;;1999.90;999.90;;;;;;;;;;4964115;28;20242;-73
2022/12/07 04:55:54;;;;;;;1999.90;999.90;;;;;;;;;;4950904;28;20231;-73
2022/12/07 04:58:21;;;;;;;1999.90;999.90;;;;;;;;;;4964849;28;21067;-73
2022/12/07 05:00:49;;;;;;;1999.90;999.90;;;;;;;;;;4963249;28;20260;-74
2022/12/07 05:03:17;;;;;;;1999.90;999.90;;;;;;;;;;4939658;28;20235;-73
2022/12/07 05:05:45;;;;;;;1999.90;999.90;;;;;;;;;;4960174;28;20231;-73
2022/12/07 05:08:14;;;;;;;1999.90;999.90;;;;;;;;;;4962406;28;20227;-73
2022/12/07 05:10:42;;;;;;;1999.90;999.90;;;;;;;;;;4965736;28;21442;-73
2022/12/07 05:13:10;;;;;;;1999.90;999.90;;;;;;;;;;4963424;28;20315;-74
2022/12/07 05:15:38;;;;;;;1999.90;999.90;;;;;;;;;;4963449;28;20263;-73
2022/12/07 05:18:06;;;;;;;1999.90;999.90;;;;;;;;;;4961862;28;20243;-74
2022/12/07 05:20:34;;;;;;;1999.90;999.90;;;;;;;;;;4963630;28;22255;-73
2022/12/07 05:23:09;;;;;;;1999.90;999.90;;;;;;;;;;4965054;28;20265;-73
2022/12/07 05:25:38;;;;;;;1999.90;999.90;;;;;;;;;;4931714;28;20434;-73
2022/12/07 05:28:07;;;;;;;1999.90;999.90;;;;;;;;;;4952036;28;20326;-72
2022/12/07 05:30:35;;;;;;;1999.90;999.90;;;;;;;;;;4962113;28;20241;-73
2022/12/07 05:33:03;;;;;;;1999.90;999.90;;;;;;;;;;4961668;28;20231;-74
2022/12/07 05:35:31;;;;;;;1999.90;999.90;;;;;;;;;;4961793;28;20235;-73
2022/12/07 05:37:59;;;;;;;1999.90;999.90;;;;;;;;;;4960454;28;20236;-75
2022/12/07 05:40:27;;;;;;;1999.90;999.90;;;;;;;;;;4963992;28;20235;-74
2022/12/07 05:42:56;;;;;;;1999.90;999.90;;;;;;;;;;4959011;28;20393;-75
2022/12/07 05:45:31;;;;;;;1999.90;999.90;;;;;;;;;;4960609;28;20226;-74
2022/12/07 05:47:59;;;;;;;1999.90;999.90;;;;;;;;;;4953430;28;20232;-73
2022/12/07 05:50:27;;;;;;;1999.90;999.90;;;;;;;;;;4961180;28;20242;-74
2022/12/07 05:53:00;;;;;;;1999.90;999.90;;;;;;;;;;4966384;28;20238;-73
2022/12/07 05:55:28;;;;;;;1999.90;999.90;;;;;;;;;;4961927;28;20741;-74
2022/12/07 06:00:42;;;;;;;1999.90;999.90;;;;;;;;;;4964277;28;20235;-73
2022/12/07 06:03:17;;;;;;;1999.90;999.90;;;;;;;;;;4963400;28;20270;-74
2022/12/07 06:05:45;;;;;;;1999.90;999.90;;;;;;;;;;4982074;28;20228;-75
2022/12/07 06:08:14;;;;;;;1999.90;999.90;;;;;;;;;;4964646;28;20235;-76
2022/12/07 06:10:42;;;;;;;1999.90;999.90;;;;;;;;;;4964406;28;20269;-76
2022/12/07 06:13:11;;;;;;;1999.90;999.90;;;;;;;;;;4963363;28;20235;-76
2022/12/07 06:15:38;;;;;;;1999.90;999.90;;;;;;;;;;4965306;28;20245;-75
2022/12/07 06:18:06;;;;;;;1999.90;999.90;;;;;;;;;;4965812;28;21053;-76
2022/12/07 06:20:34;;;;;;;1999.90;999.90;;;;;;;;;;4967588;28;20242;-76
2022/12/07 06:23:02;;;;;;;1999.90;999.90;;;;;;;;;;4955823;28;20236;-75
2022/12/07 06:25:30;;;;;;;1999.90;999.90;;;;;;;;;;4965989;28;20255;-76
2022/12/07 06:27:58;;;;;;;1999.90;999.90;;;;;;;;;;4966945;28;20231;-76
2022/12/07 06:30:27;;;;;;;1999.90;999.90;;;;;;;;;;4966874;28;20239;-75
2022/12/07 06:32:55;;;;;;;1999.90;999.90;;;;;;;;;;4949212;28;21104;-76
2022/12/07 06:35:22;;;;;;;1999.90;999.90;;;;;;;;;;4970102;28;20368;-77
2022/12/07 06:37:50;;;;;;;1999.90;999.90;;;;;;;;;;4961413;28;20241;-77
2022/12/07 06:40:18;;;;;;;1999.90;999.90;;;;;;;;;;4947628;28;20238;-76
2022/12/07 06:42:46;;;;;;;1999.90;999.90;;;;;;;;;;4951280;28;20254;-76
2022/12/07 06:45:14;;;;;;;1999.90;999.90;;;;;;;;;;4938553;28;20235;-76
2022/12/07 06:47:43;;;;;;;1999.90;999.90;;;;;;;;;;4964121;28;20232;-76
2022/12/07 06:50:14;;;;;;;1999.90;999.90;;;;;;;;;;4967512;28;20247;-76
2022/12/07 06:52:42;;;;;;;1999.90;999.90;;;;;;;;;;4950737;28;20233;-76
2022/12/07 06:55:09;;;;;;;1999.90;999.90;;;;;;;;;;4954243;28;20661;-76
2022/12/07 06:57:37;;;;;;;1999.90;999.90;;;;;;;;;;4963835;28;20234;-76
2022/12/07 07:00:06;;;;;;;1999.90;999.90;;;;;;;;;;4981106;28;20235;-75
2022/12/07 07:02:34;;;;;;;1999.90;999.90;;;;;;;;;;4965274;28;20235;-76
2022/12/07 07:05:04;;;;;;;1999.90;999.90;;;;;;;;;;4963191;28;20258;-77
2022/12/07 07:07:31;;;;;;;1999.90;999.90;;;;;;;;;;4963517;28;20228;-76
2022/12/07 07:10:18;;;;;;;1999.90;999.90;;;;;;;;;;4972440;28;20351;-77
2022/12/07 07:12:46;;;;;;;1999.90;999.90;;;;;;;;;;4963868;28;20238;-76
2022/12/07 07:15:14;;;;;;;1999.90;999.90;;;;;;;;;;4962560;28;20779;-76
2022/12/07 07:17:42;;;;;;;1999.90;999.90;;;;;;;;;;4964415;28;21100;-75
2022/12/07 07:20:12;;;;;;;1999.90;999.90;;;;;;;;;;4965157;28;20262;-75
2022/12/07 07:22:40;;;;;;;1999.90;999.90;;;;;;;;;;4973153;28;20710;-76
2022/12/07 07:25:08;;;;;;;1999.90;999.90;;;;;;;;;;4964496;28;21473;-75
2022/12/07 07:27:36;;;;;;;1999.90;999.90;;;;;;;;;;4965626;28;20242;-76
2022/12/07 07:30:04;;;;;;;1999.90;999.90;;;;;;;;;;4963724;28;20231;-76
2022/12/07 07:32:32;;;;;;;1999.90;999.90;;;;;;;;;;4965348;28;20243;-77
2022/12/07 07:35:00;;;;;;;1999.90;999.90;;;;;;;;;;4959672;28;20231;-76
2022/12/07 07:37:29;;;;;;;1999.90;999.90;;;;;;;;;;4957606;28;21087;-76
2022/12/07 07:39:57;;;;;;;1999.90;999.90;;;;;;;;;;4965370;28;20323;-76
2022/12/07 07:42:25;;;;;;;1999.90;999.90;;;;;;;;;;4962505;28;20240;-76
2022/12/07 07:44:53;;;;;;;1999.90;999.90;;;;;;;;;;4957988;28;20234;-77
2022/12/07 07:47:21;;;;;;;1999.90;999.90;;;;;;;;;;4966644;28;20282;-75
2022/12/07 07:49:49;;;;;;;1999.90;999.90;;;;;;;;;;4948025;28;21279;-74
2022/12/07 07:52:17;;;;;;;1999.90;999.90;;;;;;;;;;4961120;28;20737;-78
2022/12/07 07:54:46;;;;;;;1999.90;999.90;;;;;;;;;;4956119;28;21143;-73
2022/12/07 07:57:15;;;;;;;1999.90;999.90;;;;;;;;;;4970128;28;20231;-75
2022/12/07 07:59:42;;;;;;;1999.90;999.90;;;;;;;;;;4940459;28;20946;-75
2022/12/07 08:02:14;;;;;;;1999.90;999.90;;;;;;;;;;4950498;28;20234;-75
2022/12/07 08:04:42;;;;;;;1999.90;999.90;;;;;;;;;;4967491;28;20262;-76
2022/12/07 08:07:10;;;;;;;1999.90;999.90;;;;;;;;;;4952073;28;20235;-75
2022/12/07 08:09:38;;;;;;;1999.90;999.90;;;;;;;;;;4958094;28;20290;-75
2022/12/07 08:12:08;;;;;;;1999.90;999.90;;;;;;;;;;4949215;28;20628;-75
2022/12/07 08:14:36;;;;;;;1999.90;999.90;;;;;;;;;;4956723;28;20321;-75
2022/12/07 08:17:03;;;;;;;1999.90;999.90;;;;;;;;;;4965246;28;21154;-75
2022/12/07 08:19:31;;;;;;;1999.90;999.90;;;;;;;;;;4962080;28;20289;-75
2022/12/07 08:21:59;;;;;;;1999.90;999.90;;;;;;;;;;4964412;28;20231;-75
2022/12/07 08:24:27;;;;;;;1999.90;999.90;;;;;;;;;;4938745;28;20235;-75
2022/12/07 08:26:55;;;;;;;1999.90;999.90;;;;;;;;;;4961851;28;20233;-75
2022/12/07 08:29:24;;;;;;;1999.90;999.90;;;;;;;;;;4963729;28;20697;-74
2022/12/07 08:31:52;;;;;;;1999.90;999.90;;;;;;;;;;4939198;28;20239;-73
2022/12/07 08:34:20;;;;;;;1999.90;999.90;;;;;;;;;;4956656;28;20254;-73
2022/12/07 08:36:48;;;;;;;1999.90;999.90;;;;;;;;;;4960882;28;20302;-73
2022/12/07 08:39:16;;;;;;;1999.90;999.90;;;;;;;;;;4962321;28;20395;-72
2022/12/07 08:41:59;;;;;;;1999.90;999.90;;;;;;;;;;4945937;28;20227;-75
2022/12/07 08:44:29;;;;;;;1999.90;999.90;;;;;;;;;;4948533;28;20302;-75
2022/12/07 08:46:59;;;;;;;1999.90;999.90;;;;;;;;;;4966129;28;20232;-73
2022/12/07 08:49:28;;;;;;;1999.90;999.90;;;;;;;;;;4947569;28;20234;-73
2022/12/07 08:51:56;;;;;;;1999.90;999.90;;;;;;;;;;4964348;28;20243;-72
2022/12/07 08:54:24;;;;;;;1999.90;999.90;;;;;;;;;;4962451;28;20239;-71
2022/12/07 08:56:53;;;;;;;1999.90;999.90;;;;;;;;;;4978765;28;20240;-72
2022/12/07 08:59:27;;;;;;;1999.90;999.90;;;;;;;;;;4965871;28;20235;-72
2022/12/07 09:01:56;;;;;;;1999.90;999.90;;;;;;;;;;4978977;28;20243;-71
2022/12/07 09:04:24;;;;;;;1999.90;999.90;;;;;;;;;;4962985;28;20654;-72
2022/12/07 09:06:52;;;;;;;1999.90;999.90;;;;;;;;;;4963689;28;20282;-73
2022/12/07 09:09:20;;;;;;;1999.90;999.90;;;;;;;;;;4962074;28;20239;-73
2022/12/07 09:11:48;;;;;;;1999.90;999.90;;;;;;;;;;4963236;28;20241;-72
2022/12/07 09:14:17;;;;;;;1999.90;999.90;;;;;;;;;;4948449;28;20231;-73
2022/12/07 09:16:44;;;;;;;1999.90;999.90;;;;;;;;;;4961923;28;20816;-72
2022/12/07 09:19:14;;;;;;;1999.90;999.90;;;;;;;;;;4961989;28;20227;-73
2022/12/07 09:21:42;;;;;;;1999.90;999.90;;;;;;;;;;4979136;28;20717;-73
2022/12/07 09:24:10;;;;;;;1999.90;999.90;;;;;;;;;;4963326;28;20239;-73
2022/12/07 09:26:39;;;;;;;1999.90;999.90;;;;;;;;;;4965395;28;20231;-72
2022/12/07 09:29:07;;;;;;;1999.90;999.90;;;;;;;;;;4960145;28;20411;-72
2022/12/07 09:31:36;;;;;;;1999.90;999.90;;;;;;;;;;4964322;28;20239;-72
2022/12/07 09:34:05;;;;;;;1999.90;999.90;;;;;;;;;;4962526;28;20278;-72
2022/12/07 09:36:35;;;;;;;1999.90;999.90;;;;;;;;;;4964696;28;20259;-72
2022/12/07 09:39:04;;;;;;;1999.90;999.90;;;;;;;;;;4964462;28;20227;-73
2022/12/07 09:41:32;;;;;;;1999.90;999.90;;;;;;;;;;4964618;28;20235;-73
2022/12/07 09:44:04;;;;;;;1999.90;999.90;;;;;;;;;;4959016;28;20238;-73
2022/12/07 09:46:34;;;;;;;1999.90;999.90;;;;;;;;;;4965130;28;20227;-72
2022/12/07 09:49:03;;;;;;;1999.90;999.90;;;;;;;;;;4964068;28;20241;-73
2022/12/07 09:51:31;;;;;;;1999.90;999.90;;;;;;;;;;4940596;28;20265;-73
2022/12/07 09:54:01;;;;;;;1999.90;999.90;;;;;;;;;;4963882;28;20239;-73
2022/12/07 09:56:30;;;;;;;1999.90;999.90;;;;;;;;;;4965351;28;20239;-73
2022/12/07 09:59:00;;;;;;;1999.90;999.90;;;;;;;;;;4964173;28;20673;-72
2022/12/07 10:01:29;;;;;;;1999.90;999.90;;;;;;;;;;4962819;28;20235;-73
2022/12/07 10:04:02;;;;;;;1999.90;999.90;;;;;;;;;;4944365;28;20236;-72
2022/12/07 10:06:30;;;;;;;1999.90;999.90;;;;;;;;;;4964449;28;20231;-72
2022/12/07 10:08:57;;;;;;;1999.90;999.90;;;;;;;;;;4963512;28;20235;-72
2022/12/07 10:11:27;;;;;;;1999.90;999.90;;;;;;;;;;4963703;28;21641;-72
2022/12/07 10:13:55;;;;;;;1999.90;999.90;;;;;;;;;;4959760;28;20242;-72
2022/12/07 10:16:35;;;;;;;1999.90;999.90;;;;;;;;;;4964668;28;20235;-73
2022/12/07 10:19:18;;;;;;;1999.90;999.90;;;;;;;;;;4960345;28;20265;-73
2022/12/07 10:22:00;;;;;;;1999.90;999.90;;;;;;;;;;4961345;28;20231;-73
2022/12/07 10:24:28;;;;;;;1999.90;999.90;;;;;;;;;;4952027;28;20249;-73
2022/12/07 10:26:57;;;;;;;1999.90;999.90;;;;;;;;;;4957915;28;20227;-73
2022/12/07 10:29:28;;;;;;;1999.90;999.90;;;;;;;;;;4963297;28;20236;-74
2022/12/07 10:31:58;;;;;;;1999.90;999.90;;;;;;;;;;4938990;28;20235;-73
2022/12/07 10:34:28;;;;;;;1999.90;999.90;;;;;;;;;;4966369;28;21809;-74
2022/12/07 10:37:08;;;;;;;1999.90;999.90;;;;;;;;;;4981609;28;20224;-73
2022/12/07 10:39:41;;;;;;;1999.90;999.90;;;;;;;;;;4957880;28;20242;-74
2022/12/07 10:42:16;;;;;;;1999.90;999.90;;;;;;;;;;4965992;28;20720;-74
2022/12/07 10:44:44;;;;;;;1999.90;999.90;;;;;;;;;;4965035;28;20239;-74
2022/12/07 10:47:21;;;;;;;1999.90;999.90;;;;;;;;;;4962242;28;20521;-73
2022/12/07 10:49:56;;;;;;;1999.90;999.90;;;;;;;;;;4968005;28;20227;-73
2022/12/07 10:52:41;;;;;;;1999.90;999.90;;;;;;;;;;4940350;28;20243;-73
2022/12/07 10:55:15;;;;;;;1999.90;999.90;;;;;;;;;;4955496;28;20392;-73
2022/12/07 10:57:51;;;;;;;1999.90;999.90;;;;;;;;;;4953503;28;20313;-73
2022/12/07 11:00:20;;;;;;;1999.90;999.90;;;;;;;;;;4965171;28;20238;-73
2022/12/07 11:02:55;;;;;;;1999.90;999.90;;;;;;;;;;4943439;28;20267;-74
2022/12/07 11:05:26;;;;;;;1999.90;999.90;;;;;;;;;;4965022;28;20237;-73
2022/12/07 11:08:01;;;;;;;1999.90;999.90;;;;;;;;;;4968002;28;20246;-73
2022/12/07 11:10:32;;;;;;;1999.90;999.90;;;;;;;;;;4966209;28;20282;-73
2022/12/07 11:13:12;;;;;;;1999.90;999.90;;;;;;;;;;4966424;28;21059;-73
2022/12/07 11:15:49;;;;;;;1999.90;999.90;;;;;;;;;;4966039;28;20231;-72
2022/12/07 11:18:23;;;;;;;1999.90;999.90;;;;;;;;;;4947792;28;20812;-73
2022/12/07 11:20:53;;;;;;;1999.90;999.90;;;;;;;;;;4972715;28;20227;-73
2022/12/07 11:23:28;;;;;;;1999.90;999.90;;;;;;;;;;4965359;28;20713;-74
2022/12/07 11:26:00;;;;;;;1999.90;999.90;;;;;;;;;;4966089;28;20234;-72
2022/12/07 11:28:36;;;;;;;1999.90;999.90;;;;;;;;;;4949148;28;20259;-73
2022/12/07 11:31:08;;;;;;;1999.90;999.90;;;;;;;;;;4965061;28;20544;-73
2022/12/07 11:33:38;;;;;;;1999.90;999.90;;;;;;;;;;4962739;28;20257;-73
2022/12/07 11:36:17;;;;;;;1999.90;999.90;;;;;;;;;;4962253;28;20237;-74
2022/12/07 11:38:46;;;;;;;1999.90;999.90;;;;;;;;;;4957688;28;20242;-73
2022/12/07 11:41:18;;;;;;;1999.90;999.90;;;;;;;;;;4960788;28;20301;-72
2022/12/07 11:43:55;;;;;;;1999.90;999.90;;;;;;;;;;4964128;28;20227;-72
2022/12/07 11:46:25;;;;;;;1999.90;999.90;;;;;;;;;;4980243;28;20857;-73
2022/12/07 11:48:59;;;;;;;1999.90;999.90;;;;;;;;;;4966322;28;20223;-73
2022/12/07 11:51:29;;;;;;;1999.90;999.90;;;;;;;;;;4967579;28;20227;-73
2022/12/07 11:54:02;;;;;;;1999.90;999.90;;;;;;;;;;4977809;28;20761;-73
2022/12/07 11:56:31;;;;;;;1999.90;999.90;;;;;;;;;;4959775;28;20290;-73
2022/12/07 11:59:04;;;;;;;1999.90;999.90;;;;;;;;;;4963674;28;20997;-74
2022/12/07 12:01:41;;;;;;;1999.90;999.90;;;;;;;;;;4964781;28;20231;-73
2022/12/07 12:04:20;;;;;;;1999.90;999.90;;;;;;;;;;4965238;28;20717;-73
2022/12/07 12:06:48;;;;;;;1999.90;999.90;;;;;;;;;;4966234;28;20235;-73
2022/12/07 12:09:18;;;;;;;1999.90;999.90;;;;;;;;;;4964512;28;20295;-73
2022/12/07 12:12:23;;;;;;;1999.90;999.90;;;;;;;;;;4978912;28;20234;-73
2022/12/07 12:15:24;;;;;;;1999.90;999.90;;;;;;;;;;4966191;28;20241;-72
2022/12/07 12:18:02;;;;;;;1999.90;999.90;;;;;;;;;;4949519;28;20228;-72
2022/12/07 12:20:31;;;;;;;1999.90;999.90;;;;;;;;;;4965832;28;20231;-72
2022/12/07 12:23:00;;;;;;;1999.90;999.90;;;;;;;;;;4961032;28;20246;-72
2022/12/07 12:25:29;;;;;;;1999.90;999.90;;;;;;;;;;4966906;28;20231;-72
2022/12/07 12:27:59;;;;;;;1999.90;999.90;;;;;;;;;;4966369;28;20231;-71
2022/12/07 12:30:32;;;;;;;1999.90;999.90;;;;;;;;;;4966836;28;20330;-73
2022/12/07 12:33:05;;;;;;;1999.90;999.90;;;;;;;;;;4966231;28;20242;-73
2022/12/07 12:35:34;;;;;;;1999.90;999.90;;;;;;;;;;4965944;28;20824;-73
2022/12/07 12:38:23;;;;;;;1999.90;999.90;;;;;;;;;;4962037;28;20235;-72
2022/12/07 12:40:51;;;;;;;1999.90;999.90;;;;;;;;;;4962247;28;20242;-73
2022/12/07 12:43:38;;;;;;;1999.90;999.90;;;;;;;;;;4970337;28;21766;-72
2022/12/07 12:46:25;;;;;;;1999.90;999.90;;;;;;;;;;4974161;28;20471;-73
2022/12/07 12:48:55;;;;;;;1999.90;999.90;;;;;;;;;;4987504;28;20274;-75
2022/12/07 12:51:38;;;;;;;1999.90;999.90;;;;;;;;;;4970693;28;20231;-73
2022/12/07 12:54:06;;;;;;;1999.90;999.90;;;;;;;;;;4960861;28;20247;-73
2022/12/07 12:56:40;;;;;;;1999.90;999.90;;;;;;;;;;4965246;28;20239;-73
2022/12/07 12:59:22;;;;;;;1999.90;999.90;;;;;;;;;;4966079;28;20231;-74
2022/12/07 13:01:51;;;;;;;1999.90;999.90;;;;;;;;;;4961650;28;20279;-74
2022/12/07 13:04:29;;;;;;;1999.90;999.90;;;;;;;;;;4962220;28;20249;-71
2022/12/07 13:06:57;;;;;;;1999.90;999.90;;;;;;;;;;4963517;28;20235;-73
2022/12/07 13:09:27;;;;;;;1999.90;999.90;;;;;;;;;;4941119;28;20227;-74
2022/12/07 13:12:06;;;;;;;1999.90;999.90;;;;;;;;;;4952904;28;20745;-73
2022/12/07 13:14:52;;;;;;;1999.90;999.90;;;;;;;;;;4965964;28;20246;-73
2022/12/07 13:17:34;;;;;;;1999.90;999.90;;;;;;;;;;4971111;28;20237;-72
2022/12/07 13:20:04;;;;;;;1999.90;999.90;;;;;;;;;;4964200;28;20235;-72
2022/12/07 13:22:53;;;;;;;1999.90;999.90;;;;;;;;;;4967302;28;20757;-72
2022/12/07 13:25:32;;;;;;;1999.90;999.90;;;;;;;;;;4948369;28;20231;-73
2022/12/07 13:28:03;;;;;;;1999.90;999.90;;;;;;;;;;4979795;28;20246;-73
2022/12/07 13:30:31;;;;;;;1999.90;999.90;;;;;;;;;;4964836;28;20310;-72
2022/12/07 13:33:00;;;;;;;1999.90;999.90;;;;;;;;;;4948096;28;20237;-72
2022/12/07 13:35:30;;;;;;;1999.90;999.90;;;;;;;;;;4958870;28;20827;-72
2022/12/07 13:37:58;;;;;;;1999.90;999.90;;;;;;;;;;4937489;28;20261;-73
2022/12/07 13:40:26;;;;;;;1999.90;999.90;;;;;;;;;;4963916;28;20988;-72
2022/12/07 13:43:01;;;;;;;1999.90;999.90;;;;;;;;;;4938007;28;20817;-72
2022/12/07 13:48:15;;;;;;;1999.90;999.90;;;;;;;;;;4947574;28;20733;-72
2022/12/07 13:50:44;;;;;;;1999.90;999.90;;;;;;;;;;4963063;28;20227;-73
2022/12/07 13:53:13;;;;;;;1999.90;999.90;;;;;;;;;;4963123;28;20243;-73
2022/12/07 13:55:45;;;;;;;1999.90;999.90;;;;;;;;;;4963011;28;20243;-73
2022/12/07 13:58:21;;;;;;;1999.90;999.90;;;;;;;;;;4937593;28;20226;-73
2022/12/07 14:00:48;;;;;;;1999.90;999.90;;;;;;;;;;4963710;28;20230;-73
2022/12/07 14:03:31;;;;;;;1999.90;999.90;;;;;;;;;;4964152;28;20239;-72
2022/12/07 14:06:25;;;;;;;1999.90;999.90;;;;;;;;;;4964273;28;20261;-72